createdAt,value
2023-06-08T00:01:16.816Z,17.33
2023-06-08T00:03:47.772Z,17.31
2023-06-08T00:06:16.719Z,17.29
2023-06-08T00:08:45.263Z,17.27
2023-06-08T00:11:14.437Z,17.27
2023-06-08T00:13:42.222Z,17.26
2023-06-08T00:16:09.647Z,17.26
2023-06-08T00:18:37.901Z,17.27
2023-06-08T00:21:05.588Z,17.30
2023-06-08T00:23:33.425Z,17.31
2023-06-08T00:26:01.357Z,17.31
2023-06-08T00:28:29.622Z,17.32
2023-06-08T00:30:57.365Z,17.30
2023-06-08T00:33:24.481Z,17.27
2023-06-08T00:35:51.802Z,17.23
2023-06-08T00:38:18.935Z,17.19
2023-06-08T00:40:46.624Z,17.14
2023-06-08T00:43:13.883Z,17.09
2023-06-08T00:45:41.184Z,17.05
2023-06-08T00:48:10.408Z,17.00
2023-06-08T00:50:38.041Z,16.95
2023-06-08T00:53:05.514Z,16.88
2023-06-08T00:55:34.983Z,16.82
2023-06-08T00:58:03.017Z,16.74
2023-06-08T01:00:31.248Z,16.67
2023-06-08T01:03:00.406Z,16.61
2023-06-08T01:05:27.876Z,16.55
2023-06-08T01:08:14.968Z,16.52
2023-06-08T01:10:48.788Z,16.49
2023-06-08T01:13:19.838Z,16.45
2023-06-08T01:15:54.088Z,16.41
2023-06-08T01:18:25.252Z,16.38
2023-06-08T01:21:08.465Z,16.35
2023-06-08T01:23:46.412Z,16.31
2023-06-08T01:26:17.315Z,16.28
2023-06-08T01:28:44.529Z,16.25
2023-06-08T01:31:11.727Z,16.23
2023-06-08T01:33:39.006Z,16.20
2023-06-08T01:36:13.442Z,16.18
2023-06-08T01:38:50.815Z,16.14
2023-06-08T01:41:24.643Z,16.11
2023-06-08T01:43:54.308Z,16.06
2023-06-08T01:46:24.010Z,16.02
2023-06-08T01:48:54.071Z,15.98
2023-06-08T01:51:22.079Z,15.93
2023-06-08T01:53:49.202Z,15.88
2023-06-08T01:56:18.058Z,15.83
2023-06-08T01:58:45.503Z,15.81
2023-06-08T02:01:12.743Z,15.78
2023-06-08T02:03:40.248Z,15.76
2023-06-08T02:06:07.469Z,15.74
2023-06-08T02:08:34.687Z,15.72
2023-06-08T02:11:02.462Z,15.69
2023-06-08T02:13:30.277Z,15.65
2023-06-08T02:15:59.055Z,15.62
2023-06-08T02:18:28.116Z,15.58
2023-06-08T02:20:55.358Z,15.55
2023-06-08T02:23:22.785Z,15.51
2023-06-08T02:25:53.372Z,15.46
2023-06-08T02:28:22.176Z,15.40
2023-06-08T02:30:51.938Z,15.35
2023-06-08T02:33:19.209Z,15.30
2023-06-08T02:35:47.917Z,15.27
2023-06-08T02:38:16.432Z,15.25
2023-06-08T02:40:43.948Z,15.21
2023-06-08T02:43:11.171Z,15.18
2023-06-08T02:45:40.820Z,15.14
2023-06-08T02:48:08.798Z,15.11
2023-06-08T02:50:36.804Z,15.10
2023-06-08T02:53:05.088Z,15.08
2023-06-08T02:55:36.367Z,15.07
2023-06-08T02:58:06.867Z,15.07
2023-06-08T03:00:35.452Z,15.07
2023-06-08T03:03:24.674Z,15.07
2023-06-08T03:06:00.093Z,15.08
2023-06-08T03:08:29.818Z,15.08
2023-06-08T03:10:57.200Z,15.10
2023-06-08T03:13:24.526Z,15.11
2023-06-08T03:15:54.275Z,15.12
2023-06-08T03:18:21.697Z,15.12
2023-06-08T03:20:53.093Z,15.14
2023-06-08T03:23:21.369Z,15.16
2023-06-08T03:25:50.678Z,15.16
2023-06-08T03:28:17.986Z,15.17
2023-06-08T03:30:47.211Z,15.18
2023-06-08T03:33:16.491Z,15.18
2023-06-08T03:35:54.906Z,15.18
2023-06-08T03:38:42.900Z,15.19
2023-06-08T03:41:14.493Z,15.20
2023-06-08T03:43:42.789Z,15.19
2023-06-08T03:46:10.407Z,15.21
2023-06-08T03:48:38.516Z,15.25
2023-06-08T03:51:06.334Z,15.30
2023-06-08T03:53:34.597Z,15.35
2023-06-08T03:56:02.061Z,15.40
2023-06-08T03:58:31.852Z,15.44
2023-06-08T04:00:59.168Z,15.46
2023-06-08T04:03:27.513Z,15.48
2023-06-08T04:05:54.961Z,15.51
2023-06-08T04:08:23.174Z,15.55
2023-06-08T04:10:51.284Z,15.60
2023-06-08T04:13:18.704Z,15.65
2023-06-08T04:15:46.687Z,15.70
2023-06-08T04:18:17.223Z,15.78
2023-06-08T04:20:44.915Z,15.85
2023-06-08T04:23:13.472Z,15.94
2023-06-08T04:25:42.025Z,16.01
2023-06-08T04:28:09.353Z,16.09
2023-06-08T04:30:36.519Z,16.16
2023-06-08T04:33:04.655Z,16.23
2023-06-08T04:35:33.626Z,16.28
2023-06-08T04:38:02.795Z,16.30
2023-06-08T04:40:34.632Z,16.32
2023-06-08T04:43:03.576Z,16.31
2023-06-08T04:45:34.374Z,16.32
2023-06-08T04:48:02.123Z,16.38
2023-06-08T04:50:30.420Z,16.44
2023-06-08T04:52:58.627Z,16.48
2023-06-08T04:55:25.887Z,16.53
2023-06-08T04:57:53.055Z,16.58
2023-06-08T05:00:21.887Z,16.67
2023-06-08T05:02:49.150Z,16.76
2023-06-08T05:05:16.773Z,16.88
2023-06-08T05:07:45.132Z,16.95
2023-06-08T05:10:13.226Z,17.10
2023-06-08T05:12:40.543Z,17.28
2023-06-08T05:15:09.760Z,17.40
2023-06-08T05:17:36.918Z,17.53
2023-06-08T05:20:05.203Z,17.71
2023-06-08T05:22:32.661Z,17.88
2023-06-08T05:25:00.039Z,18.09
2023-06-08T05:27:27.253Z,18.36
2023-06-08T05:29:54.459Z,18.59
2023-06-08T05:32:22.922Z,18.72
2023-06-08T05:34:51.949Z,18.82
2023-06-08T05:37:19.242Z,19.05
2023-06-08T05:39:46.573Z,19.23
2023-06-08T05:42:13.829Z,19.39
2023-06-08T05:44:41.140Z,19.57
2023-06-08T05:47:09.420Z,19.81
2023-06-08T05:49:37.182Z,20.11
2023-06-08T05:52:04.856Z,20.52
2023-06-08T05:54:32.209Z,21.25
2023-06-08T05:56:59.587Z,22.61
2023-06-08T05:59:27.472Z,24.26
2023-06-08T06:01:55.418Z,25.83
2023-06-08T06:04:35.815Z,27.20
2023-06-08T06:07:04.712Z,28.55
2023-06-08T06:09:31.832Z,29.80
2023-06-08T06:11:58.907Z,31.11
2023-06-08T06:14:26.366Z,32.36
2023-06-08T06:17:06.185Z,33.37
2023-06-08T06:19:38.345Z,34.09
2023-06-08T06:22:06.624Z,34.76
2023-06-08T06:24:33.765Z,35.24
2023-06-08T06:27:01.360Z,35.86
2023-06-08T06:29:28.587Z,36.55
2023-06-08T06:31:55.891Z,37.14
2023-06-08T06:34:23.687Z,37.69
2023-06-08T06:36:51.064Z,38.31
2023-06-08T06:39:20.180Z,38.87
2023-06-08T06:41:47.633Z,39.42
2023-06-08T06:44:17.171Z,39.92
2023-06-08T06:46:44.578Z,40.38
2023-06-08T06:49:12.063Z,40.75
2023-06-08T06:51:40.708Z,41.06
2023-06-08T06:54:09.161Z,41.41
2023-06-08T06:56:36.536Z,41.66
2023-06-08T06:59:04.919Z,41.90
2023-06-08T07:01:37.592Z,42.09
2023-06-08T07:04:07.369Z,42.00
2023-06-08T07:06:34.703Z,41.95
2023-06-08T07:09:02.104Z,42.07
2023-06-08T07:11:30.535Z,42.36
2023-06-08T07:13:58.389Z,42.57
2023-06-08T07:16:27.593Z,42.44
2023-06-08T07:18:55.466Z,42.20
2023-06-08T07:21:23.879Z,42.15
2023-06-08T07:24:11.752Z,42.25
2023-06-08T07:26:44.849Z,42.48
2023-06-08T07:29:12.200Z,42.76
2023-06-08T07:31:40.487Z,42.94
2023-06-08T07:34:08.588Z,43.04
2023-06-08T07:36:36.716Z,43.10
2023-06-08T07:39:04.796Z,43.12
2023-06-08T07:41:35.318Z,43.11
2023-06-08T07:44:03.620Z,43.03
2023-06-08T07:46:32.074Z,43.07
2023-06-08T07:48:59.274Z,43.13
2023-06-08T07:51:26.582Z,43.10
2023-06-08T07:53:53.876Z,43.07
2023-06-08T07:56:22.780Z,42.62
2023-06-08T07:58:50.835Z,42.28
2023-06-08T08:01:18.561Z,42.03
2023-06-08T08:03:47.013Z,41.78
2023-06-08T08:06:14.891Z,41.54
2023-06-08T08:08:42.230Z,41.40
2023-06-08T08:11:09.418Z,41.34
2023-06-08T08:13:36.648Z,41.18
2023-06-08T08:16:04.120Z,41.00
2023-06-08T08:18:31.328Z,40.96
2023-06-08T08:20:58.554Z,40.79
2023-06-08T08:23:25.844Z,40.55
2023-06-08T08:25:53.775Z,40.59
2023-06-08T08:28:20.935Z,40.67
2023-06-08T08:30:48.111Z,40.49
2023-06-08T08:33:17.919Z,40.22
2023-06-08T08:35:45.822Z,40.05
2023-06-08T08:38:12.845Z,39.99
2023-06-08T08:40:42.485Z,40.00
2023-06-08T08:43:18.309Z,40.15
2023-06-08T08:45:48.063Z,40.26
2023-06-08T08:48:18.557Z,40.24
2023-06-08T08:50:51.350Z,40.02
2023-06-08T08:53:18.925Z,39.84
2023-06-08T08:55:49.971Z,39.78
2023-06-08T08:58:19.878Z,39.67
2023-06-08T09:00:51.433Z,39.60
2023-06-08T09:03:19.044Z,39.63
2023-06-08T09:05:47.225Z,39.32
2023-06-08T09:08:14.526Z,38.73
2023-06-08T09:10:42.098Z,38.32
2023-06-08T09:13:09.718Z,38.28
2023-06-08T09:15:39.050Z,38.00
2023-06-08T09:18:18.924Z,37.94
2023-06-08T09:20:47.195Z,37.74
2023-06-08T09:23:21.868Z,37.46
2023-06-08T09:25:49.500Z,37.24
2023-06-08T09:28:27.165Z,37.05
2023-06-08T09:30:56.987Z,37.12
2023-06-08T09:33:26.334Z,37.27
2023-06-08T09:36:09.560Z,37.22
2023-06-08T09:38:36.984Z,37.15
2023-06-08T09:41:24.147Z,37.07
2023-06-08T09:43:54.839Z,37.07
2023-06-08T09:49:24.863Z,37.21
2023-06-08T09:51:57.761Z,37.39
2023-06-08T09:54:26.758Z,37.40
2023-06-08T09:56:59.032Z,37.26
2023-06-08T09:59:36.066Z,37.14
2023-06-08T10:02:16.638Z,37.14
2023-06-08T10:04:47.593Z,37.07
2023-06-08T10:07:20.765Z,36.96
2023-06-08T10:09:50.925Z,36.79
2023-06-08T10:12:19.361Z,36.71
2023-06-08T10:14:46.856Z,36.56
2023-06-08T10:17:16.649Z,36.50
2023-06-08T10:19:45.090Z,36.55
2023-06-08T10:22:12.730Z,36.61
2023-06-08T10:24:49.047Z,36.54
2023-06-08T10:27:34.357Z,36.38
2023-06-08T10:30:05.165Z,36.05
2023-06-08T10:32:38.107Z,35.37
2023-06-08T10:35:09.727Z,34.79
2023-06-08T10:37:39.995Z,34.39
2023-06-08T10:40:13.700Z,34.22
2023-06-08T10:42:52.113Z,34.02
2023-06-08T10:45:31.758Z,33.90
2023-06-08T10:48:06.150Z,33.88
2023-06-08T10:50:38.916Z,33.78
2023-06-08T10:53:06.887Z,33.27
2023-06-08T10:55:34.239Z,32.68
2023-06-08T10:58:18.163Z,32.37
2023-06-08T11:00:48.208Z,32.10
2023-06-08T11:03:18.646Z,32.07
2023-06-08T11:05:51.318Z,31.89
2023-06-08T11:08:20.370Z,31.62
2023-06-08T11:10:53.265Z,31.49
2023-06-08T11:13:20.744Z,31.32
2023-06-08T11:15:49.373Z,31.25
2023-06-08T11:18:20.632Z,31.30
2023-06-08T11:20:48.951Z,31.03
2023-06-08T11:23:17.034Z,30.52
2023-06-08T11:25:46.089Z,30.22
2023-06-08T11:28:14.463Z,30.11
2023-06-08T11:30:42.332Z,30.14
2023-06-08T11:33:15.628Z,30.22
2023-06-08T11:35:43.925Z,30.38
2023-06-08T11:38:11.255Z,30.52
2023-06-08T11:40:43.256Z,30.50
2023-06-08T11:43:11.451Z,30.52
2023-06-08T11:45:40.490Z,30.45
2023-06-08T11:50:47.060Z,30.28
2023-06-08T11:53:17.771Z,30.15
2023-06-08T11:55:48.032Z,29.90
2023-06-08T11:58:15.873Z,29.61
2023-06-08T12:00:43.236Z,29.47
2023-06-08T12:03:13.138Z,29.39
2023-06-08T12:05:41.683Z,29.20
2023-06-08T12:08:16.366Z,29.03
2023-06-08T12:10:47.736Z,28.74
2023-06-08T12:13:17.679Z,28.57
2023-06-08T12:15:46.802Z,28.56
2023-06-08T12:18:16.129Z,28.67
2023-06-08T12:20:45.210Z,28.69
2023-06-08T12:23:13.644Z,28.73
2023-06-08T12:25:42.302Z,28.73
2023-06-08T12:28:18.544Z,28.77
2023-06-08T12:30:45.898Z,28.78
2023-06-08T12:33:18.793Z,28.81
2023-06-08T12:35:47.157Z,28.75
2023-06-08T12:38:14.411Z,28.66
2023-06-08T12:40:44.987Z,28.62
2023-06-08T12:43:12.730Z,28.61
2023-06-08T12:45:39.895Z,28.74
2023-06-08T12:48:07.369Z,28.86
2023-06-08T12:50:34.873Z,28.85
2023-06-08T12:53:02.458Z,28.82
2023-06-08T12:55:30.357Z,28.81
2023-06-08T12:57:57.890Z,28.87
2023-06-08T13:00:26.756Z,28.76
2023-06-08T13:02:54.296Z,28.52
2023-06-08T13:05:21.978Z,28.44
2023-06-08T13:07:51.669Z,28.49
2023-06-08T13:10:19.076Z,28.47
2023-06-08T13:12:47.271Z,28.33
2023-06-08T13:15:15.154Z,28.11
2023-06-08T13:17:43.374Z,27.93
2023-06-08T13:20:13.019Z,27.89
2023-06-08T13:22:40.368Z,27.73
2023-06-08T13:25:08.525Z,27.69
2023-06-08T13:27:36.321Z,27.67
2023-06-08T13:30:03.485Z,27.60
2023-06-08T13:32:32.322Z,27.58
2023-06-08T13:34:59.732Z,27.57
2023-06-08T13:37:27.351Z,27.50
2023-06-08T13:39:54.798Z,27.40
2023-06-08T13:42:22.493Z,27.35
2023-06-08T13:44:52.073Z,27.34
2023-06-08T13:47:19.304Z,27.39
2023-06-08T13:49:47.503Z,27.45
2023-06-08T13:52:15.453Z,27.45
2023-06-08T13:54:42.734Z,27.43
2023-06-08T13:57:10.661Z,27.39
2023-06-08T13:59:37.884Z,27.37
2023-06-08T14:02:05.526Z,27.41
2023-06-08T14:04:33.028Z,27.48
2023-06-08T14:07:00.237Z,27.58
2023-06-08T14:09:27.527Z,27.65
2023-06-08T14:11:54.933Z,27.69
2023-06-08T14:14:22.013Z,27.66
2023-06-08T14:16:49.679Z,27.55
2023-06-08T14:19:17.325Z,27.53
2023-06-08T14:21:46.792Z,27.53
2023-06-08T14:24:14.401Z,27.55
2023-06-08T14:26:42.039Z,27.49
2023-06-08T14:29:10.121Z,27.47
2023-06-08T14:31:37.287Z,27.47
2023-06-08T14:34:04.684Z,27.46
2023-06-08T14:36:31.851Z,27.49
2023-06-08T14:38:59.090Z,27.49
2023-06-08T14:41:27.215Z,27.45
2023-06-08T14:43:54.635Z,27.46
2023-06-08T14:46:22.035Z,27.48
2023-06-08T14:48:49.515Z,27.40
2023-06-08T14:51:36.378Z,27.33
2023-06-08T14:54:05.012Z,27.24
2023-06-08T14:56:32.201Z,27.16
2023-06-08T14:58:59.314Z,27.02
2023-06-08T15:01:26.715Z,26.88
2023-06-08T15:03:53.910Z,26.83
2023-06-08T15:06:21.263Z,26.82
2023-06-08T15:08:48.528Z,26.84
2023-06-08T15:11:18.183Z,26.86
2023-06-08T15:13:45.522Z,26.85
2023-06-08T15:16:13.701Z,26.75
2023-06-08T15:18:42.386Z,26.64
2023-06-08T15:21:09.881Z,26.59
2023-06-08T15:23:37.531Z,26.44
2023-06-08T15:26:05.082Z,26.29
2023-06-08T15:28:32.458Z,26.20
2023-06-08T15:30:59.929Z,26.12
2023-06-08T15:33:28.440Z,26.08
2023-06-08T15:35:55.866Z,25.99
2023-06-08T15:38:23.120Z,25.93
2023-06-08T15:40:50.422Z,25.90
2023-06-08T15:43:17.696Z,25.82
2023-06-08T15:45:46.653Z,25.76
2023-06-08T15:48:14.390Z,25.70
2023-06-08T15:50:41.501Z,25.67
2023-06-08T15:53:09.741Z,25.66
2023-06-08T15:55:36.873Z,25.61
2023-06-08T15:58:05.128Z,25.57
2023-06-08T16:00:32.466Z,25.52
2023-06-08T16:02:59.753Z,25.47
2023-06-08T16:05:27.240Z,25.44
2023-06-08T16:07:54.545Z,25.40
2023-06-08T16:10:21.958Z,25.37
2023-06-08T16:12:49.300Z,25.33
2023-06-08T16:15:17.199Z,25.29
2023-06-08T16:17:44.499Z,25.28
2023-06-08T16:20:13.720Z,25.27
2023-06-08T16:22:41.142Z,25.26
2023-06-08T16:25:10.064Z,25.23
2023-06-08T16:27:37.207Z,25.21
2023-06-08T16:30:05.301Z,25.16
2023-06-08T16:32:32.927Z,25.11
2023-06-08T16:35:00.183Z,25.09
2023-06-08T16:37:27.427Z,25.07
2023-06-08T16:39:54.745Z,25.04
2023-06-08T16:42:21.900Z,25.00
2023-06-08T16:44:49.143Z,24.95
2023-06-08T16:47:16.587Z,24.91
2023-06-08T16:49:43.775Z,24.87
2023-06-08T16:52:11.603Z,24.83
2023-06-08T16:54:38.717Z,24.77
2023-06-08T16:57:07.263Z,24.74
2023-06-08T16:59:34.660Z,24.70
2023-06-08T17:02:03.044Z,24.68
2023-06-08T17:04:31.075Z,24.65
2023-06-08T17:06:58.770Z,24.59
2023-06-08T17:09:26.282Z,24.53
2023-06-08T17:11:53.477Z,24.48
2023-06-08T17:14:20.714Z,24.45
2023-06-08T17:16:49.378Z,24.43
2023-06-08T17:19:16.618Z,24.37
2023-06-08T17:21:44.285Z,24.34
2023-06-08T17:24:11.963Z,24.27
2023-06-08T17:26:40.722Z,24.21
2023-06-08T17:29:08.073Z,24.15
2023-06-08T17:31:39.786Z,24.11
2023-06-08T17:34:07.391Z,24.09
2023-06-08T17:36:34.679Z,24.07
2023-06-08T17:39:01.957Z,24.05
2023-06-08T17:41:29.289Z,24.02
2023-06-08T17:43:56.597Z,24.01
2023-06-08T17:46:23.926Z,23.96
2023-06-08T17:48:51.153Z,23.92
2023-06-08T17:51:19.491Z,23.87
2023-06-08T17:53:46.822Z,23.84
2023-06-08T17:56:16.792Z,23.79
2023-06-08T17:58:44.524Z,23.73
2023-06-08T18:01:12.021Z,23.68
2023-06-08T18:03:43.398Z,23.64
2023-06-08T18:06:24.116Z,23.62
2023-06-08T18:08:53.228Z,23.58
2023-06-08T18:11:22.303Z,23.55
2023-06-08T18:13:49.513Z,23.51
2023-06-08T18:16:16.736Z,23.46
2023-06-08T18:18:44.122Z,23.42
2023-06-08T18:21:12.934Z,23.37
2023-06-08T18:23:40.156Z,23.32
2023-06-08T18:26:07.500Z,23.26
2023-06-08T18:28:34.725Z,23.20
2023-06-08T18:31:02.005Z,23.15
2023-06-08T18:33:29.521Z,23.11
2023-06-08T18:35:56.580Z,23.06
2023-06-08T18:38:24.417Z,23.01
2023-06-08T18:40:52.010Z,22.97
2023-06-08T18:43:19.191Z,22.91
2023-06-08T18:45:46.800Z,22.87
2023-06-08T18:48:14.636Z,22.83
2023-06-08T18:50:42.501Z,22.78
2023-06-08T18:53:10.262Z,22.72
2023-06-08T18:55:37.408Z,22.68
2023-06-08T18:58:04.608Z,22.63
2023-06-08T19:00:31.858Z,22.58
2023-06-08T19:02:59.720Z,22.53
2023-06-08T19:05:27.238Z,22.48
2023-06-08T19:07:54.441Z,22.42
2023-06-08T19:10:21.971Z,22.38
2023-06-08T19:12:49.239Z,22.33
2023-06-08T19:15:16.308Z,22.30
2023-06-08T19:17:43.659Z,22.25
2023-06-08T19:20:12.858Z,22.21
2023-06-08T19:22:40.050Z,22.16
2023-06-08T19:25:08.784Z,22.11
2023-06-08T19:27:35.824Z,22.08
2023-06-08T19:30:03.062Z,22.04
2023-06-08T19:32:30.533Z,21.99
2023-06-08T19:34:57.701Z,21.96
2023-06-08T19:37:24.909Z,21.93
2023-06-08T19:39:52.822Z,21.89
2023-06-08T19:42:19.958Z,21.85
2023-06-08T19:44:47.840Z,21.81
2023-06-08T19:47:15.181Z,21.77
2023-06-08T19:49:42.708Z,21.74
2023-06-08T19:52:10.851Z,21.70
2023-06-08T19:54:38.145Z,21.67
2023-06-08T19:57:06.717Z,21.65
2023-06-08T19:59:36.999Z,21.61
2023-06-08T20:02:04.386Z,21.59
2023-06-08T20:04:31.585Z,21.57
2023-06-08T20:07:04.176Z,21.54
2023-06-08T20:09:33.657Z,21.51
2023-06-08T20:12:00.807Z,21.49
2023-06-08T20:14:28.292Z,21.45
2023-06-08T20:16:57.643Z,21.41
2023-06-08T20:19:25.505Z,21.39
2023-06-08T20:21:52.821Z,21.36
2023-06-08T20:24:20.311Z,21.34
2023-06-08T20:26:48.148Z,21.31
2023-06-08T20:29:16.398Z,21.28
2023-06-08T20:31:43.872Z,21.25
2023-06-08T20:34:13.563Z,21.22
2023-06-08T20:36:40.941Z,21.18
2023-06-08T20:39:08.658Z,21.14
2023-06-08T20:41:36.901Z,21.09
2023-06-08T20:44:06.145Z,21.06
2023-06-08T20:46:34.367Z,21.03
2023-06-08T20:49:04.228Z,20.99
2023-06-08T20:51:31.677Z,20.96
2023-06-08T20:53:59.030Z,20.93
2023-06-08T20:56:27.717Z,20.90
2023-06-08T20:58:54.921Z,20.87
2023-06-08T21:01:23.964Z,20.84
2023-06-08T21:03:52.474Z,20.79
2023-06-08T21:06:19.734Z,20.76
2023-06-08T21:08:47.080Z,20.73
2023-06-08T21:11:14.719Z,20.69
2023-06-08T21:13:41.976Z,20.66
2023-06-08T21:16:09.992Z,20.63
2023-06-08T21:18:37.524Z,20.61
2023-06-08T21:21:04.999Z,20.57
2023-06-08T21:23:32.761Z,20.54
2023-06-08T21:26:00.404Z,20.51
2023-06-08T21:28:27.678Z,20.47
2023-06-08T21:30:56.193Z,20.44
2023-06-08T21:33:23.983Z,20.41
2023-06-08T21:36:06.450Z,20.39
2023-06-08T21:38:37.623Z,20.36
2023-06-08T21:41:04.898Z,20.34
2023-06-08T21:43:32.170Z,20.32
2023-06-08T21:46:02.724Z,20.29
2023-06-08T21:48:33.345Z,20.26
2023-06-08T21:51:01.135Z,20.23
2023-06-08T21:53:28.662Z,20.20
2023-06-08T21:55:55.967Z,20.17
2023-06-08T21:58:22.994Z,20.14
2023-06-08T22:00:50.598Z,20.11
2023-06-08T22:03:18.143Z,20.08
2023-06-08T22:05:46.450Z,20.05
2023-06-08T22:08:26.629Z,20.03
2023-06-08T22:10:54.709Z,20.00
2023-06-08T22:13:22.108Z,19.97
2023-06-08T22:15:49.595Z,19.95
2023-06-08T22:18:17.508Z,19.92
2023-06-08T22:20:45.443Z,19.90
2023-06-08T22:23:12.759Z,19.88
2023-06-08T22:25:42.619Z,19.86
2023-06-08T22:28:13.912Z,19.83
2023-06-08T22:30:41.802Z,19.81
2023-06-08T22:33:09.489Z,19.78
2023-06-08T22:35:36.840Z,19.76
2023-06-08T22:38:05.903Z,19.73
2023-06-08T22:40:33.368Z,19.71
2023-06-08T22:43:00.560Z,19.69
2023-06-08T22:45:27.884Z,19.68
2023-06-08T22:47:55.216Z,19.65
2023-06-08T22:50:23.968Z,19.64
2023-06-08T22:52:53.929Z,19.60
2023-06-08T22:55:21.378Z,19.59
2023-06-08T22:57:48.459Z,19.56
2023-06-08T23:00:17.929Z,19.54
2023-06-08T23:02:45.194Z,19.52
2023-06-08T23:05:14.135Z,19.50
2023-06-08T23:07:44.851Z,19.48
2023-06-08T23:10:15.892Z,19.47
2023-06-08T23:12:44.181Z,19.45
2023-06-08T23:15:17.479Z,19.44
2023-06-08T23:17:45.412Z,19.42
2023-06-08T23:20:14.112Z,19.40
2023-06-08T23:22:41.381Z,19.38
2023-06-08T23:25:14.581Z,19.35
2023-06-08T23:27:41.765Z,19.31
2023-06-08T23:30:11.087Z,19.27
2023-06-08T23:32:38.457Z,19.23
2023-06-08T23:35:06.551Z,19.21
2023-06-08T23:37:34.577Z,19.20
2023-06-08T23:40:01.730Z,19.17
2023-06-08T23:42:28.907Z,19.14
2023-06-08T23:44:56.989Z,19.09
2023-06-08T23:47:24.868Z,19.05
2023-06-08T23:49:52.082Z,18.99
2023-06-08T23:52:20.530Z,18.95
2023-06-08T23:54:47.885Z,18.92
2023-06-08T23:57:15.193Z,18.89
2023-06-08T23:59:42.512Z,18.86
